Time;durP1;ratioP1;P1;durP2;ratioP2;P2;SDS_P1;SDS_P2;PMS_P1;PMS_P2;Temp;Humidity;BMP_temperature;BMP_pressure;BME280_temperature;BME280_humidity;BME280_pressure;Samples;Min_cycle;Max_cycle;Signal;HPM_P1;HPM_P2
2021/06/20 00:00:10;;;;;;;;;;;26.50;50.60;;;;;;1485451;39;19932;-67
2021/06/20 00:01:33;;;;;;;;;;;26.50;50.80;;;;;;1488037;39;19947;-67
2021/06/20 00:02:54;;;;;;;;;;;26.50;50.80;;;;;;1487464;40;19947;-67
2021/06/20 00:04:16;;;;;;;;;;;26.50;50.90;;;;;;1487257;40;19951;-67
2021/06/20 00:05:38;;;;;;;;;;;26.50;50.50;;;;;;1487294;40;20198;-67
2021/06/20 00:06:59;;;;;;;;;;;26.50;50.80;;;;;;1488152;40;19935;-67
2021/06/20 00:08:20;;;;;;;;;;;26.40;50.80;;;;;;1487941;40;19939;-67
2021/06/20 00:09:41;;;;;;;;;;;26.40;50.80;;;;;;1486686;40;19951;-67
2021/06/20 00:11:02;;;;;;;;;;;26.40;50.80;;;;;;1487697;40;20440;-67
2021/06/20 00:12:23;;;;;;;;;;;26.40;51.00;;;;;;1486920;40;19940;-67
2021/06/20 00:13:43;;;;;;;;;;;26.40;50.70;;;;;;1481378;40;20284;-67
2021/06/20 00:15:07;;;;;;;;;;;26.40;50.80;;;;;;1486991;39;19947;-67
2021/06/20 00:16:28;;;;;;;;;;;26.40;50.90;;;;;;1486945;39;19938;-67
2021/06/20 00:17:49;;;;;;;;;;;26.40;50.90;;;;;;1487906;40;20028;-67
2021/06/20 00:19:11;;;;;;;;;;;26.30;50.90;;;;;;1486689;40;19932;-67
2021/06/20 00:20:33;;;;;;;;;;;26.40;51.10;;;;;;1487252;39;20268;-67
2021/06/20 00:21:54;;;;;;;;;;;26.40;51.00;;;;;;1485947;39;20043;-67
2021/06/20 00:23:15;;;;;;;;;;;26.30;51.40;;;;;;1487420;40;19942;-67
2021/06/20 00:24:36;;;;;;;;;;;26.30;51.00;;;;;;1488040;40;20036;-67
2021/06/20 00:25:57;;;;;;;;;;;26.30;51.00;;;;;;1482499;40;19972;-67
2021/06/20 00:27:18;;;;;;;;;;;26.30;51.30;;;;;;1486224;40;19980;-67
2021/06/20 00:28:39;;;;;;;;;;;26.20;50.90;;;;;;1486248;40;19944;-67
2021/06/20 00:30:00;;;;;;;;;;;26.30;51.10;;;;;;1487031;40;19939;-67
2021/06/20 00:31:20;;;;;;;;;;;26.20;51.10;;;;;;1486736;40;19932;-67
2021/06/20 00:32:42;;;;;;;;;;;26.20;51.60;;;;;;1486809;40;19940;-67
2021/06/20 00:34:02;;;;;;;;;;;26.20;51.70;;;;;;1486123;40;19980;-67
2021/06/20 00:35:23;;;;;;;;;;;26.20;51.30;;;;;;1488963;40;19948;-67
2021/06/20 00:36:44;;;;;;;;;;;26.20;51.10;;;;;;1486250;40;19964;-67
2021/06/20 00:38:05;;;;;;;;;;;26.20;51.20;;;;;;1485931;40;20302;-67
2021/06/20 00:39:26;;;;;;;;;;;26.20;51.20;;;;;;1487495;40;19936;-67
2021/06/20 00:40:46;;;;;;;;;;;26.20;51.10;;;;;;1488126;39;19943;-67
2021/06/20 00:42:07;;;;;;;;;;;26.10;51.30;;;;;;1486714;39;20032;-67
2021/06/20 00:43:28;;;;;;;;;;;26.10;51.50;;;;;;1486163;40;19940;-67
2021/06/20 00:44:50;;;;;;;;;;;26.10;51.50;;;;;;1486762;40;20285;-67
2021/06/20 00:46:10;;;;;;;;;;;26.10;51.60;;;;;;1487633;40;19936;-67
2021/06/20 00:47:31;;;;;;;;;;;26.10;51.50;;;;;;1486143;40;19960;-67
2021/06/20 00:48:52;;;;;;;;;;;26.10;51.60;;;;;;1486154;40;20147;-67
2021/06/20 00:50:14;;;;;;;;;;;26.00;51.50;;;;;;1486903;40;19936;-67
2021/06/20 00:51:34;;;;;;;;;;;26.00;51.60;;;;;;1486885;40;20002;-67
2021/06/20 00:52:57;;;;;;;;;;;26.00;51.70;;;;;;1487213;40;19932;-67
2021/06/20 00:54:18;;;;;;;;;;;26.00;51.60;;;;;;1485505;40;19959;-67
2021/06/20 00:55:39;;;;;;;;;;;26.00;51.60;;;;;;1486949;40;19948;-67
2021/06/20 00:57:00;;;;;;;;;;;25.90;51.60;;;;;;1487542;40;19944;-67
2021/06/20 00:58:21;;;;;;;;;;;26.00;52.50;;;;;;1485958;40;19944;-67
2021/06/20 00:59:42;;;;;;;;;;;25.90;51.90;;;;;;1483560;40;19972;-67
2021/06/20 01:01:03;;;;;;;;;;;26.00;51.90;;;;;;1486042;39;20188;-67
2021/06/20 01:02:24;;;;;;;;;;;25.90;52.00;;;;;;1485894;40;19944;-67
2021/06/20 01:03:45;;;;;;;;;;;25.90;52.00;;;;;;1487624;40;19939;-67
2021/06/20 01:05:07;;;;;;;;;;;25.90;52.00;;;;;;1487008;40;20017;-67
2021/06/20 01:06:28;;;;;;;;;;;25.90;52.10;;;;;;1486145;40;19939;-67
2021/06/20 01:07:52;;;;;;;;;;;25.90;51.80;;;;;;1481435;40;20185;-67
2021/06/20 01:09:14;;;;;;;;;;;25.90;52.20;;;;;;1483875;40;19933;-67
2021/06/20 01:10:36;;;;;;;;;;;25.80;52.10;;;;;;1486829;40;19968;-67
2021/06/20 01:11:57;;;;;;;;;;;25.80;52.20;;;;;;1486682;40;20299;-67
2021/06/20 01:13:18;;;;;;;;;;;25.80;52.20;;;;;;1487155;40;19940;-67
2021/06/20 01:14:39;;;;;;;;;;;25.80;51.80;;;;;;1486514;40;19935;-67
2021/06/20 01:16:00;;;;;;;;;;;25.80;52.40;;;;;;1488063;40;19939;-67
2021/06/20 01:17:21;;;;;;;;;;;25.70;52.10;;;;;;1483430;40;19932;-67
2021/06/20 01:18:42;;;;;;;;;;;25.70;52.50;;;;;;1481926;40;19936;-67
2021/06/20 01:20:04;;;;;;;;;;;25.70;52.30;;;;;;1484610;39;19948;-67
2021/06/20 01:21:25;;;;;;;;;;;25.70;52.00;;;;;;1487503;39;19936;-67
2021/06/20 01:22:50;;;;;;;;;;;25.70;52.50;;;;;;1486026;40;19980;-67
2021/06/20 01:24:11;;;;;;;;;;;25.70;52.40;;;;;;1483640;40;19945;-67
2021/06/20 01:25:33;;;;;;;;;;;25.70;52.20;;;;;;1486099;40;20169;-67
2021/06/20 01:26:54;;;;;;;;;;;25.60;52.30;;;;;;1487013;40;20250;-67
2021/06/20 01:28:15;;;;;;;;;;;25.60;52.20;;;;;;1486209;40;20037;-67
2021/06/20 01:29:44;;;;;;;;;;;25.60;52.00;;;;;;1487502;40;20256;-67
2021/06/20 01:31:06;;;;;;;;;;;25.60;51.90;;;;;;1488413;40;20001;-67
2021/06/20 01:32:27;;;;;;;;;;;25.60;52.10;;;;;;1486262;40;19984;-67
2021/06/20 01:33:48;;;;;;;;;;;25.60;52.10;;;;;;1486854;40;21349;-67
2021/06/20 01:35:10;;;;;;;;;;;25.60;52.30;;;;;;1487721;40;19990;-67
2021/06/20 01:36:31;;;;;;;;;;;25.50;52.40;;;;;;1484507;40;19985;-67
2021/06/20 01:37:53;;;;;;;;;;;25.50;52.50;;;;;;1480686;40;19933;-67
2021/06/20 01:39:13;;;;;;;;;;;25.50;52.50;;;;;;1485399;39;20120;-67
2021/06/20 01:40:34;;;;;;;;;;;25.50;52.40;;;;;;1486883;39;19947;-67
2021/06/20 01:41:55;;;;;;;;;;;25.50;52.50;;;;;;1488687;40;19936;-67
2021/06/20 01:43:16;;;;;;;;;;;25.50;52.60;;;;;;1487524;40;20004;-67
2021/06/20 01:44:47;;;;;;;;;;;25.50;52.40;;;;;;1487720;40;19943;-67
2021/06/20 01:46:08;;;;;;;;;;;25.50;52.40;;;;;;1486970;40;20024;-67
2021/06/20 01:47:29;;;;;;;;;;;25.50;52.40;;;;;;1486408;40;19966;-67
2021/06/20 01:48:50;;;;;;;;;;;25.40;52.40;;;;;;1485935;40;20543;-67
2021/06/20 01:50:12;;;;;;;;;;;25.40;52.30;;;;;;1486331;40;20040;-67
2021/06/20 01:51:33;;;;;;;;;;;25.40;52.40;;;;;;1484882;40;20337;-67
2021/06/20 01:53:07;;;;;;;;;;;25.40;52.70;;;;;;1486582;40;19975;-67
2021/06/20 01:54:29;;;;;;;;;;;25.40;52.50;;;;;;1487132;40;19964;-67
2021/06/20 01:55:50;;;;;;;;;;;25.40;52.50;;;;;;1487058;40;19948;-67
2021/06/20 01:57:11;;;;;;;;;;;25.40;52.30;;;;;;1488269;40;19985;-67
2021/06/20 01:58:32;;;;;;;;;;;25.40;52.30;;;;;;1488065;39;19939;-67
2021/06/20 01:59:53;;;;;;;;;;;25.40;52.40;;;;;;1488246;39;19942;-67
2021/06/20 02:01:17;;;;;;;;;;;25.40;52.70;;;;;;1486205;40;20239;-67
2021/06/20 02:02:38;;;;;;;;;;;25.30;52.60;;;;;;1486166;40;19943;-67
2021/06/20 02:03:59;;;;;;;;;;;25.30;52.50;;;;;;1486522;40;19943;-67
2021/06/20 02:05:23;;;;;;;;;;;25.30;52.40;;;;;;1487066;40;20200;-67
2021/06/20 02:06:44;;;;;;;;;;;25.30;52.70;;;;;;1488040;40;19936;-67
2021/06/20 02:08:05;;;;;;;;;;;25.30;54.20;;;;;;1485366;40;19951;-67
2021/06/20 02:09:25;;;;;;;;;;;25.30;53.20;;;;;;1486077;40;20474;-67
2021/06/20 02:10:47;;;;;;;;;;;25.30;55.00;;;;;;1488718;40;19936;-67
2021/06/20 02:12:09;;;;;;;;;;;25.20;53.70;;;;;;1487489;40;19943;-67
2021/06/20 02:13:29;;;;;;;;;;;25.20;52.70;;;;;;1486402;40;20020;-67
2021/06/20 02:14:51;;;;;;;;;;;25.20;52.90;;;;;;1485661;40;20010;-67
2021/06/20 02:16:12;;;;;;;;;;;25.20;52.70;;;;;;1488819;40;19940;-67
2021/06/20 02:17:33;;;;;;;;;;;25.20;53.00;;;;;;1486778;39;20029;-67
2021/06/20 02:18:54;;;;;;;;;;;25.20;53.10;;;;;;1486404;40;19933;-67
2021/06/20 02:20:16;;;;;;;;;;;25.10;52.90;;;;;;1486658;40;19938;-67
2021/06/20 02:21:37;;;;;;;;;;;25.10;53.50;;;;;;1486437;40;19940;-67
2021/06/20 02:22:58;;;;;;;;;;;25.10;54.00;;;;;;1485472;40;19952;-67
2021/06/20 02:24:19;;;;;;;;;;;25.10;52.70;;;;;;1483382;40;19993;-67
2021/06/20 02:25:41;;;;;;;;;;;25.10;54.30;;;;;;1487092;40;20507;-67
2021/06/20 02:27:02;;;;;;;;;;;25.10;54.20;;;;;;1483730;40;20292;-67
2021/06/20 02:28:23;;;;;;;;;;;25.10;53.50;;;;;;1485585;40;20233;-67
2021/06/20 02:29:46;;;;;;;;;;;25.10;53.50;;;;;;1487879;40;19944;-68
2021/06/20 02:31:07;;;;;;;;;;;25.10;53.30;;;;;;1485929;40;19936;-67
2021/06/20 02:32:28;;;;;;;;;;;25.00;53.40;;;;;;1487266;40;19965;-67
2021/06/20 02:33:49;;;;;;;;;;;25.00;53.40;;;;;;1484438;40;19944;-67
2021/06/20 02:35:11;;;;;;;;;;;25.00;56.20;;;;;;1487138;40;19936;-68
2021/06/20 02:36:31;;;;;;;;;;;25.00;54.40;;;;;;1486223;40;19938;-68
2021/06/20 02:37:53;;;;;;;;;;;25.00;55.40;;;;;;1487937;40;19968;-67
2021/06/20 02:39:13;;;;;;;;;;;25.00;55.50;;;;;;1488073;40;20259;-67
2021/06/20 02:40:34;;;;;;;;;;;25.00;55.30;;;;;;1489694;39;20025;-67
2021/06/20 02:41:55;;;;;;;;;;;25.00;55.30;;;;;;1487934;40;19972;-67
2021/06/20 02:43:16;;;;;;;;;;;24.90;54.90;;;;;;1487326;40;20320;-67
2021/06/20 02:44:37;;;;;;;;;;;24.90;54.60;;;;;;1486419;40;19944;-67
2021/06/20 02:45:58;;;;;;;;;;;24.90;54.20;;;;;;1487748;40;20335;-67
2021/06/20 02:47:19;;;;;;;;;;;24.90;54.90;;;;;;1487993;40;19932;-67
2021/06/20 02:48:40;;;;;;;;;;;24.90;54.30;;;;;;1488201;40;19984;-67
2021/06/20 02:50:01;;;;;;;;;;;24.80;54.10;;;;;;1485254;40;19939;-67
2021/06/20 02:51:21;;;;;;;;;;;24.80;53.70;;;;;;1485574;40;20249;-67
2021/06/20 02:52:43;;;;;;;;;;;24.90;53.60;;;;;;1488409;40;19940;-67
2021/06/20 02:54:04;;;;;;;;;;;24.90;54.10;;;;;;1487000;40;19952;-67
2021/06/20 02:55:25;;;;;;;;;;;24.80;55.10;;;;;;1486184;40;20071;-67
2021/06/20 02:56:46;;;;;;;;;;;24.80;56.00;;;;;;1486403;40;20269;-67
2021/06/20 02:58:06;;;;;;;;;;;24.80;57.90;;;;;;1480132;40;19937;-67
2021/06/20 02:59:27;;;;;;;;;;;24.90;54.90;;;;;;1485011;40;20043;-68
2021/06/20 03:00:48;;;;;;;;;;;24.80;55.10;;;;;;1488334;39;20064;-67
2021/06/20 03:02:09;;;;;;;;;;;24.80;54.80;;;;;;1482683;40;19982;-67
2021/06/20 03:03:30;;;;;;;;;;;24.90;56.70;;;;;;1485410;40;20409;-67
2021/06/20 03:04:51;;;;;;;;;;;24.80;55.50;;;;;;1485685;39;20271;-67
2021/06/20 03:06:13;;;;;;;;;;;24.90;54.90;;;;;;1488681;39;20012;-67
2021/06/20 03:07:33;;;;;;;;;;;24.80;54.60;;;;;;1487953;39;19940;-67
2021/06/20 03:08:55;;;;;;;;;;;24.90;54.00;;;;;;1485050;40;19932;-67
2021/06/20 03:10:16;;;;;;;;;;;24.80;56.00;;;;;;1486859;39;19947;-67
2021/06/20 03:11:41;;;;;;;;;;;24.80;56.20;;;;;;1487160;40;20168;-68
2021/06/20 03:13:06;;;;;;;;;;;24.80;56.10;;;;;;1487335;40;20032;-68
2021/06/20 03:14:26;;;;;;;;;;;24.80;56.30;;;;;;1481341;40;19951;-67
2021/06/20 03:15:47;;;;;;;;;;;24.90;57.80;;;;;;1485533;40;19943;-67
2021/06/20 03:17:08;;;;;;;;;;;24.80;56.30;;;;;;1486454;40;19936;-67
2021/06/20 03:18:29;;;;;;;;;;;24.80;55.60;;;;;;1487497;40;19951;-67
2021/06/20 03:19:50;;;;;;;;;;;24.80;55.40;;;;;;1488725;40;19946;-67
2021/06/20 03:21:11;;;;;;;;;;;24.80;55.20;;;;;;1483684;40;19936;-67
2021/06/20 03:22:32;;;;;;;;;;;24.80;55.00;;;;;;1485396;40;19989;-67
2021/06/20 03:23:53;;;;;;;;;;;24.80;55.00;;;;;;1485605;40;19963;-67
2021/06/20 03:25:14;;;;;;;;;;;24.80;56.20;;;;;;1486910;40;19939;-67
2021/06/20 03:26:35;;;;;;;;;;;24.80;55.30;;;;;;1487369;39;20033;-68
2021/06/20 03:27:56;;;;;;;;;;;24.70;55.90;;;;;;1486022;40;19932;-67
2021/06/20 03:29:16;;;;;;;;;;;24.80;55.30;;;;;;1487804;39;19939;-67
2021/06/20 03:30:37;;;;;;;;;;;24.80;54.90;;;;;;1487529;39;19940;-67
2021/06/20 03:31:58;;;;;;;;;;;24.70;58.00;;;;;;1486479;40;19936;-67
2021/06/20 03:33:19;;;;;;;;;;;24.70;56.10;;;;;;1487248;40;19953;-67
2021/06/20 03:34:40;;;;;;;;;;;24.70;56.20;;;;;;1488969;40;19950;-67
2021/06/20 03:36:02;;;;;;;;;;;24.70;57.20;;;;;;1486739;40;19936;-67
2021/06/20 03:37:23;;;;;;;;;;;24.70;57.30;;;;;;1487991;40;20306;-67
2021/06/20 03:38:45;;;;;;;;;;;24.70;55.60;;;;;;1487770;40;19947;-67
2021/06/20 03:40:06;;;;;;;;;;;24.70;55.30;;;;;;1487147;40;19942;-67
2021/06/20 03:41:27;;;;;;;;;;;24.60;57.70;;;;;;1486424;40;19952;-67
2021/06/20 03:42:48;;;;;;;;;;;24.60;57.60;;;;;;1486550;40;19944;-67
2021/06/20 03:44:09;;;;;;;;;;;24.60;56.80;;;;;;1487011;40;20078;-67
2021/06/20 03:45:30;;;;;;;;;;;24.60;56.00;;;;;;1485393;40;20159;-67
2021/06/20 03:46:50;;;;;;;;;;;24.60;55.80;;;;;;1486956;40;20057;-67
2021/06/20 03:48:11;;;;;;;;;;;24.60;57.40;;;;;;1486286;40;19955;-67
2021/06/20 03:49:32;;;;;;;;;;;24.60;58.00;;;;;;1486868;39;19947;-67
2021/06/20 03:50:53;;;;;;;;;;;24.60;57.50;;;;;;1487505;39;19980;-67
2021/06/20 03:52:14;;;;;;;;;;;24.50;55.90;;;;;;1485745;40;19940;-67
2021/06/20 03:53:34;;;;;;;;;;;24.50;55.70;;;;;;1482365;40;19986;-68
2021/06/20 03:54:55;;;;;;;;;;;24.50;55.50;;;;;;1486200;40;19936;-67
2021/06/20 03:56:16;;;;;;;;;;;24.40;55.90;;;;;;1487027;40;19942;-67
2021/06/20 03:57:37;;;;;;;;;;;24.50;55.30;;;;;;1484594;40;19936;-67
2021/06/20 03:58:58;;;;;;;;;;;24.50;56.00;;;;;;1485051;40;19931;-67
2021/06/20 04:00:19;;;;;;;;;;;24.50;56.10;;;;;;1487617;40;19936;-67
2021/06/20 04:01:40;;;;;;;;;;;24.40;55.50;;;;;;1487018;40;19943;-67
2021/06/20 04:03:02;;;;;;;;;;;24.40;55.40;;;;;;1485313;40;20285;-68
2021/06/20 04:04:22;;;;;;;;;;;24.40;55.20;;;;;;1487126;40;19940;-67
2021/06/20 04:05:43;;;;;;;;;;;24.40;55.10;;;;;;1487425;40;19947;-68
2021/06/20 04:07:04;;;;;;;;;;;24.40;55.00;;;;;;1489139;40;19943;-68
2021/06/20 04:08:25;;;;;;;;;;;24.40;56.70;;;;;;1487068;40;20241;-67
2021/06/20 04:09:46;;;;;;;;;;;24.40;56.70;;;;;;1487756;39;20165;-67
2021/06/20 04:11:06;;;;;;;;;;;24.40;55.40;;;;;;1483338;40;20060;-67
2021/06/20 04:12:27;;;;;;;;;;;24.40;57.00;;;;;;1487750;40;19947;-68
2021/06/20 04:13:48;;;;;;;;;;;24.40;56.20;;;;;;1487023;39;20032;-67
2021/06/20 04:15:09;;;;;;;;;;;24.30;55.70;;;;;;1482764;40;20172;-68
2021/06/20 04:16:30;;;;;;;;;;;24.30;55.30;;;;;;1485201;40;20009;-69
2021/06/20 04:17:51;;;;;;;;;;;24.30;55.70;;;;;;1485600;40;19960;-67
2021/06/20 04:19:11;;;;;;;;;;;24.30;55.20;;;;;;1482666;40;20057;-67
2021/06/20 04:20:32;;;;;;;;;;;24.30;55.30;;;;;;1486125;40;19936;-67
2021/06/20 04:21:53;;;;;;;;;;;24.30;55.20;;;;;;1486789;40;19936;-68
2021/06/20 04:23:15;;;;;;;;;;;24.30;55.60;;;;;;1486313;40;19938;-67
2021/06/20 04:24:36;;;;;;;;;;;24.30;55.20;;;;;;1483255;40;19936;-68
2021/06/20 04:25:57;;;;;;;;;;;24.30;55.70;;;;;;1484483;40;19936;-67
2021/06/20 04:27:17;;;;;;;;;;;24.30;56.00;;;;;;1487551;40;19940;-68
2021/06/20 04:28:38;;;;;;;;;;;24.30;55.60;;;;;;1485995;40;19968;-68
2021/06/20 04:29:59;;;;;;;;;;;24.30;55.90;;;;;;1485791;40;20512;-67
2021/06/20 04:31:20;;;;;;;;;;;24.30;56.30;;;;;;1488158;39;19939;-67
2021/06/20 04:32:41;;;;;;;;;;;24.30;55.80;;;;;;1488660;40;19942;-67
2021/06/20 04:34:02;;;;;;;;;;;24.30;55.50;;;;;;1486894;40;20329;-67
2021/06/20 04:35:23;;;;;;;;;;;24.30;55.20;;;;;;1487325;40;19984;-67
2021/06/20 04:36:44;;;;;;;;;;;24.20;56.30;;;;;;1484144;40;19940;-67
2021/06/20 04:38:05;;;;;;;;;;;24.20;55.60;;;;;;1485357;39;19983;-67
2021/06/20 04:39:27;;;;;;;;;;;24.20;55.70;;;;;;1487541;39;19935;-67
2021/06/20 04:40:48;;;;;;;;;;;24.30;56.60;;;;;;1485222;40;20253;-67
2021/06/20 04:42:10;;;;;;;;;;;24.20;56.60;;;;;;1486639;40;20327;-67
2021/06/20 04:45:12;;;;;;;;;;;24.20;56.50;;;;;;1486211;40;20026;-67
2021/06/20 04:46:34;;;;;;;;;;;24.20;56.30;;;;;;1481267;40;19955;-67
2021/06/20 04:47:55;;;;;;;;;;;24.20;56.40;;;;;;1484709;40;19939;-66
2021/06/20 04:49:19;;;;;;;;;;;24.20;55.50;;;;;;1486338;40;20100;-67
2021/06/20 04:50:39;;;;;;;;;;;24.20;55.40;;;;;;1487800;40;19936;-67
2021/06/20 04:52:03;;;;;;;;;;;24.20;56.30;;;;;;1485287;40;19944;-67
2021/06/20 04:53:24;;;;;;;;;;;24.20;56.70;;;;;;1487162;39;19932;-67
2021/06/20 04:54:51;;;;;;;;;;;24.20;56.00;;;;;;1487864;40;19936;-67
2021/06/20 04:56:12;;;;;;;;;;;24.20;56.00;;;;;;1486422;40;20380;-67
2021/06/20 04:57:33;;;;;;;;;;;24.20;57.70;;;;;;1482960;40;20530;-67
2021/06/20 04:58:54;;;;;;;;;;;24.20;57.10;;;;;;1486370;40;19932;-66
2021/06/20 05:00:15;;;;;;;;;;;24.20;56.50;;;;;;1486313;40;20036;-66
2021/06/20 05:01:36;;;;;;;;;;;24.20;56.30;;;;;;1485395;40;20375;-67
2021/06/20 05:02:58;;;;;;;;;;;24.20;56.40;;;;;;1486416;40;19940;-67
2021/06/20 05:04:19;;;;;;;;;;;24.20;55.80;;;;;;1486310;40;19950;-67
2021/06/20 05:05:39;;;;;;;;;;;24.20;55.80;;;;;;1488086;40;19962;-67
2021/06/20 05:07:01;;;;;;;;;;;24.20;55.70;;;;;;1486234;40;20427;-67
2021/06/20 05:08:22;;;;;;;;;;;24.20;56.10;;;;;;1486110;39;19947;-67
2021/06/20 05:09:43;;;;;;;;;;;24.20;55.70;;;;;;1487968;39;20333;-67
2021/06/20 05:11:04;;;;;;;;;;;24.20;55.30;;;;;;1485747;40;20325;-67
2021/06/20 05:12:25;;;;;;;;;;;24.20;56.40;;;;;;1480802;40;19932;-67
2021/06/20 05:13:45;;;;;;;;;;;24.20;56.30;;;;;;1484316;40;19943;-67
2021/06/20 05:15:07;;;;;;;;;;;24.20;56.10;;;;;;1486147;40;19932;-66
2021/06/20 05:16:28;;;;;;;;;;;24.20;56.00;;;;;;1485437;40;19952;-67
2021/06/20 05:17:52;;;;;;;;;;;24.20;55.60;;;;;;1486402;40;19935;-67
2021/06/20 05:19:13;;;;;;;;;;;24.20;56.20;;;;;;1485239;40;19939;-67
2021/06/20 05:20:34;;;;;;;;;;;24.20;56.70;;;;;;1488027;40;20032;-67
2021/06/20 05:21:55;;;;;;;;;;;24.20;56.00;;;;;;1487131;40;19942;-67
2021/06/20 05:23:16;;;;;;;;;;;24.20;55.80;;;;;;1484026;40;19933;-67
2021/06/20 05:24:37;;;;;;;;;;;24.20;56.20;;;;;;1485781;40;19940;-67
2021/06/20 05:25:58;;;;;;;;;;;24.20;56.30;;;;;;1481918;40;20067;-67
2021/06/20 05:27:18;;;;;;;;;;;24.20;56.00;;;;;;1485000;39;19936;-67
2021/06/20 05:28:39;;;;;;;;;;;24.20;56.30;;;;;;1485717;40;19936;-67
2021/06/20 05:30:00;;;;;;;;;;;24.20;56.50;;;;;;1487286;40;19936;-67
2021/06/20 05:31:21;;;;;;;;;;;24.20;56.40;;;;;;1486513;40;19939;-67
2021/06/20 05:32:42;;;;;;;;;;;24.20;56.10;;;;;;1487313;40;19955;-67
2021/06/20 05:34:03;;;;;;;;;;;24.10;55.40;;;;;;1486484;40;20254;-67
2021/06/20 05:35:24;;;;;;;;;;;24.20;55.50;;;;;;1485161;40;19944;-67
2021/06/20 05:36:44;;;;;;;;;;;24.20;56.10;;;;;;1486596;40;19956;-67
2021/06/20 05:38:06;;;;;;;;;;;24.20;56.00;;;;;;1484199;40;19933;-67
2021/06/20 05:39:26;;;;;;;;;;;24.20;55.90;;;;;;1486364;40;19942;-67
2021/06/20 05:40:47;;;;;;;;;;;24.20;56.00;;;;;;1485134;40;19936;-67
2021/06/20 05:42:08;;;;;;;;;;;24.20;57.40;;;;;;1487322;40;19936;-67
2021/06/20 05:43:29;;;;;;;;;;;24.20;56.40;;;;;;1485792;40;19932;-67
2021/06/20 05:44:50;;;;;;;;;;;24.20;56.90;;;;;;1487876;40;19949;-68
2021/06/20 05:46:11;;;;;;;;;;;24.20;56.10;;;;;;1487474;39;19935;-68
2021/06/20 05:47:31;;;;;;;;;;;24.20;55.60;;;;;;1486588;40;19940;-67
2021/06/20 05:48:52;;;;;;;;;;;24.20;55.60;;;;;;1484805;40;19936;-67
2021/06/20 05:50:13;;;;;;;;;;;24.30;57.60;;;;;;1485548;40;19972;-67
2021/06/20 05:51:34;;;;;;;;;;;24.30;56.90;;;;;;1481199;40;20154;-67
2021/06/20 05:52:55;;;;;;;;;;;24.30;57.20;;;;;;1486710;40;19948;-67
2021/06/20 05:54:16;;;;;;;;;;;24.30;56.20;;;;;;1486500;40;19970;-68
2021/06/20 05:55:37;;;;;;;;;;;24.30;56.40;;;;;;1486401;40;19944;-67
2021/06/20 05:56:57;;;;;;;;;;;24.30;56.50;;;;;;1486746;40;20017;-67
2021/06/20 05:58:18;;;;;;;;;;;24.30;57.10;;;;;;1485853;40;20273;-67
2021/06/20 05:59:39;;;;;;;;;;;24.30;57.60;;;;;;1486632;39;20003;-67
2021/06/20 06:01:00;;;;;;;;;;;24.30;56.60;;;;;;1487006;40;19952;-67
2021/06/20 06:02:21;;;;;;;;;;;24.30;56.10;;;;;;1485224;40;20256;-67
2021/06/20 06:03:42;;;;;;;;;;;24.40;56.50;;;;;;1485982;40;19940;-66
2021/06/20 06:05:03;;;;;;;;;;;24.30;56.80;;;;;;1485618;40;19944;-67
2021/06/20 06:06:24;;;;;;;;;;;24.40;55.90;;;;;;1485605;40;20235;-67
2021/06/20 06:07:45;;;;;;;;;;;24.30;56.00;;;;;;1487351;39;20290;-67
2021/06/20 06:09:06;;;;;;;;;;;24.40;56.50;;;;;;1486701;40;19955;-67
2021/06/20 06:10:27;;;;;;;;;;;24.40;56.20;;;;;;1487334;39;19994;-67
2021/06/20 06:11:50;;;;;;;;;;;24.40;57.00;;;;;;1486740;40;19943;-66
2021/06/20 06:13:11;;;;;;;;;;;24.40;56.80;;;;;;1485940;39;19940;-67
2021/06/20 06:14:32;;;;;;;;;;;24.40;57.20;;;;;;1486151;39;19944;-66
2021/06/20 06:15:53;;;;;;;;;;;24.50;56.40;;;;;;1486820;40;20043;-66
2021/06/20 06:17:14;;;;;;;;;;;24.50;56.20;;;;;;1487448;40;19986;-66
2021/06/20 06:18:34;;;;;;;;;;;24.50;55.90;;;;;;1484980;40;20037;-67
2021/06/20 06:19:55;;;;;;;;;;;24.50;56.90;;;;;;1487960;40;20236;-66
2021/06/20 06:21:16;;;;;;;;;;;24.50;56.40;;;;;;1487182;40;19944;-67
2021/06/20 06:22:37;;;;;;;;;;;24.40;56.30;;;;;;1486303;40;19940;-67
2021/06/20 06:23:57;;;;;;;;;;;24.50;56.10;;;;;;1487469;40;20025;-67
2021/06/20 06:25:18;;;;;;;;;;;24.50;56.50;;;;;;1485997;40;19951;-67
2021/06/20 06:26:39;;;;;;;;;;;24.50;56.30;;;;;;1486474;40;19972;-67
2021/06/20 06:28:01;;;;;;;;;;;24.60;56.00;;;;;;1486876;40;20153;-67
2021/06/20 06:29:22;;;;;;;;;;;24.60;55.90;;;;;;1486514;40;19952;-67
2021/06/20 06:30:43;;;;;;;;;;;24.60;56.40;;;;;;1487729;40;19932;-67
2021/06/20 06:32:04;;;;;;;;;;;24.50;55.70;;;;;;1487186;40;19940;-67
2021/06/20 06:33:25;;;;;;;;;;;24.60;55.80;;;;;;1485829;40;19948;-67
2021/06/20 06:34:46;;;;;;;;;;;24.60;55.90;;;;;;1485849;40;19936;-67
2021/06/20 06:36:07;;;;;;;;;;;24.60;56.10;;;;;;1486280;40;19932;-67
2021/06/20 06:37:27;;;;;;;;;;;24.60;55.80;;;;;;1484655;40;19936;-67
2021/06/20 06:38:48;;;;;;;;;;;24.60;55.40;;;;;;1486505;40;19948;-67
2021/06/20 06:40:09;;;;;;;;;;;24.60;55.60;;;;;;1486729;40;19936;-67
2021/06/20 06:41:30;;;;;;;;;;;24.70;55.50;;;;;;1487792;40;20180;-67
2021/06/20 06:42:51;;;;;;;;;;;24.60;55.30;;;;;;1486391;40;19939;-67
2021/06/20 06:44:12;;;;;;;;;;;24.70;55.70;;;;;;1487144;40;19944;-67
2021/06/20 06:45:33;;;;;;;;;;;24.70;55.60;;;;;;1485981;40;19980;-66
2021/06/20 06:46:54;;;;;;;;;;;24.70;55.20;;;;;;1485224;40;19932;-67
2021/06/20 06:48:15;;;;;;;;;;;24.70;55.40;;;;;;1486321;40;19940;-67
2021/06/20 06:49:36;;;;;;;;;;;24.70;55.30;;;;;;1485322;39;19944;-67
2021/06/20 06:50:57;;;;;;;;;;;24.70;55.20;;;;;;1486325;39;19943;-66
2021/06/20 06:52:18;;;;;;;;;;;24.70;55.60;;;;;;1485854;40;20018;-66
2021/06/20 06:53:39;;;;;;;;;;;24.70;55.50;;;;;;1481038;40;19970;-67
2021/06/20 06:55:00;;;;;;;;;;;24.70;55.60;;;;;;1484811;40;19940;-67
2021/06/20 06:56:21;;;;;;;;;;;24.80;55.90;;;;;;1486595;40;19940;-67
2021/06/20 06:57:43;;;;;;;;;;;24.70;55.50;;;;;;1487604;40;20248;-67
2021/06/20 06:59:04;;;;;;;;;;;24.80;55.70;;;;;;1485824;40;19947;-67
2021/06/20 07:00:25;;;;;;;;;;;24.80;55.80;;;;;;1485953;40;19939;-67
2021/06/20 07:01:45;;;;;;;;;;;24.80;55.90;;;;;;1485892;40;20033;-67
2021/06/20 07:03:06;;;;;;;;;;;24.80;55.70;;;;;;1485465;40;19933;-67
2021/06/20 07:04:27;;;;;;;;;;;24.80;55.30;;;;;;1480848;40;20240;-67
2021/06/20 07:05:48;;;;;;;;;;;24.80;55.40;;;;;;1483856;40;20427;-67
2021/06/20 07:07:09;;;;;;;;;;;24.80;55.70;;;;;;1485783;40;19940;-67
2021/06/20 07:08:30;;;;;;;;;;;24.80;55.60;;;;;;1485511;40;20383;-67
2021/06/20 07:09:50;;;;;;;;;;;24.80;55.50;;;;;;1486099;40;19931;-67
2021/06/20 07:11:11;;;;;;;;;;;24.90;55.40;;;;;;1487040;39;19983;-67
2021/06/20 07:12:32;;;;;;;;;;;24.90;55.20;;;;;;1486723;39;19944;-67
2021/06/20 07:13:53;;;;;;;;;;;24.90;55.30;;;;;;1485402;40;19942;-67
2021/06/20 07:15:14;;;;;;;;;;;24.90;55.00;;;;;;1485591;40;19936;-67
2021/06/20 07:16:35;;;;;;;;;;;24.90;55.20;;;;;;1486906;40;20280;-67
2021/06/20 07:17:56;;;;;;;;;;;24.90;55.30;;;;;;1484048;40;19940;-67
2021/06/20 07:19:17;;;;;;;;;;;24.90;55.30;;;;;;1486713;40;20216;-67
2021/06/20 07:20:38;;;;;;;;;;;25.00;55.00;;;;;;1485569;40;20458;-67
2021/06/20 07:21:58;;;;;;;;;;;25.00;54.80;;;;;;1487628;40;19932;-67
2021/06/20 07:23:19;;;;;;;;;;;25.00;54.60;;;;;;1486247;40;19940;-67
2021/06/20 07:24:40;;;;;;;;;;;25.00;54.40;;;;;;1486012;40;20134;-67
2021/06/20 07:26:01;;;;;;;;;;;25.00;54.60;;;;;;1484129;40;19936;-67
2021/06/20 07:27:21;;;;;;;;;;;25.00;54.60;;;;;;1486587;40;19940;-67
2021/06/20 07:28:42;;;;;;;;;;;25.10;55.10;;;;;;1485785;40;19935;-67
2021/06/20 07:30:04;;;;;;;;;;;25.10;54.60;;;;;;1485900;40;19932;-67
2021/06/20 07:31:25;;;;;;;;;;;25.10;54.60;;;;;;1485316;39;19944;-67
2021/06/20 07:32:46;;;;;;;;;;;25.10;54.50;;;;;;1486314;40;19936;-67
2021/06/20 07:34:07;;;;;;;;;;;25.10;54.50;;;;;;1484546;40;20138;-67
2021/06/20 07:35:28;;;;;;;;;;;25.10;54.60;;;;;;1487847;40;19972;-67
2021/06/20 07:36:51;;;;;;;;;;;25.10;54.60;;;;;;1485579;40;19936;-67
2021/06/20 07:38:11;;;;;;;;;;;25.10;54.60;;;;;;1487329;40;20088;-67
2021/06/20 07:39:33;;;;;;;;;;;25.20;54.60;;;;;;1485331;40;19944;-67
2021/06/20 07:40:54;;;;;;;;;;;25.20;54.50;;;;;;1485155;40;19947;-67
2021/06/20 07:42:14;;;;;;;;;;;25.20;54.50;;;;;;1487098;39;19948;-67
2021/06/20 07:43:36;;;;;;;;;;;25.30;54.60;;;;;;1486458;40;19947;-67
2021/06/20 07:44:57;;;;;;;;;;;25.40;54.60;;;;;;1485317;40;19932;-67
2021/06/20 07:46:17;;;;;;;;;;;25.30;54.50;;;;;;1487345;40;19967;-67
2021/06/20 07:47:38;;;;;;;;;;;25.40;54.60;;;;;;1486334;39;19965;-67
2021/06/20 07:48:59;;;;;;;;;;;25.30;54.40;;;;;;1487538;40;19936;-67
2021/06/20 07:50:20;;;;;;;;;;;25.40;54.30;;;;;;1486128;39;19963;-67
2021/06/20 07:51:41;;;;;;;;;;;25.40;54.10;;;;;;1485968;40;19932;-67
2021/06/20 07:53:01;;;;;;;;;;;25.40;54.20;;;;;;1487486;40;21125;-67